sensor_id;sensor_type;location;lat;lon;timestamp;P1;durP1;ratioP1;P2;durP2;ratioP2
6941;SDS011;3510;43.200;27.920;2022-11-15T00:02:26;12.68;;;10.15;;
6941;SDS011;3510;43.200;27.920;2022-11-15T00:04:54;11.98;;;10.18;;
6941;SDS011;3510;43.200;27.920;2022-11-15T00:07:21;13.10;;;9.65;;
6941;SDS011;3510;43.200;27.920;2022-11-15T00:09:48;12.30;;;9.98;;
6941;SDS011;3510;43.200;27.920;2022-11-15T00:12:15;11.45;;;9.77;;
6941;SDS011;3510;43.200;27.920;2022-11-15T00:14:42;12.25;;;9.55;;
6941;SDS011;3510;43.200;27.920;2022-11-15T00:17:09;11.00;;;8.88;;
6941;SDS011;3510;43.200;27.920;2022-11-15T00:19:36;10.00;;;8.57;;
6941;SDS011;3510;43.200;27.920;2022-11-15T00:22:04;10.63;;;8.25;;
6941;SDS011;3510;43.200;27.920;2022-11-15T00:24:31;9.87;;;8.03;;
6941;SDS011;3510;43.200;27.920;2022-11-15T00:26:58;9.73;;;8.30;;
6941;SDS011;3510;43.200;27.920;2022-11-15T00:29:25;9.20;;;8.30;;
6941;SDS011;3510;43.200;27.920;2022-11-15T00:31:52;10.48;;;9.45;;
6941;SDS011;3510;43.200;27.920;2022-11-15T00:34:19;11.23;;;9.75;;
6941;SDS011;3510;43.200;27.920;2022-11-15T00:36:46;27.75;;;22.10;;
6941;SDS011;3510;43.200;27.920;2022-11-15T00:39:14;25.15;;;19.23;;
6941;SDS011;3510;43.200;27.920;2022-11-15T00:41:41;20.80;;;16.73;;
6941;SDS011;3510;43.200;27.920;2022-11-15T00:44:09;12.88;;;10.77;;
6941;SDS011;3510;43.200;27.920;2022-11-15T00:46:35;10.75;;;9.32;;
6941;SDS011;3510;43.200;27.920;2022-11-15T00:49:02;10.70;;;9.60;;
6941;SDS011;3510;43.200;27.920;2022-11-15T00:51:29;9.38;;;8.48;;
6941;SDS011;3510;43.200;27.920;2022-11-15T00:53:56;8.32;;;7.05;;
6941;SDS011;3510;43.200;27.920;2022-11-15T00:56:25;7.32;;;6.50;;
6941;SDS011;3510;43.200;27.920;2022-11-15T00:58:52;7.80;;;7.10;;
6941;SDS011;3510;43.200;27.920;2022-11-15T01:01:19;7.80;;;7.00;;
6941;SDS011;3510;43.200;27.920;2022-11-15T01:03:46;7.70;;;6.90;;
6941;SDS011;3510;43.200;27.920;2022-11-15T01:06:13;7.25;;;6.55;;
6941;SDS011;3510;43.200;27.920;2022-11-15T01:08:40;7.18;;;6.50;;
6941;SDS011;3510;43.200;27.920;2022-11-15T01:11:08;6.95;;;6.30;;
6941;SDS011;3510;43.200;27.920;2022-11-15T01:13:38;7.15;;;6.47;;
6941;SDS011;3510;43.200;27.920;2022-11-15T01:16:06;7.38;;;6.68;;
6941;SDS011;3510;43.200;27.920;2022-11-15T01:18:34;6.82;;;6.18;;
6941;SDS011;3510;43.200;27.920;2022-11-15T01:21:04;6.18;;;5.57;;
6941;SDS011;3510;43.200;27.920;2022-11-15T01:23:32;6.95;;;6.32;;
6941;SDS011;3510;43.200;27.920;2022-11-15T01:25:59;7.15;;;6.45;;
6941;SDS011;3510;43.200;27.920;2022-11-15T01:28:29;6.47;;;5.88;;
6941;SDS011;3510;43.200;27.920;2022-11-15T01:30:59;6.30;;;5.78;;
6941;SDS011;3510;43.200;27.920;2022-11-15T01:33:26;6.40;;;5.80;;
6941;SDS011;3510;43.200;27.920;2022-11-15T01:35:54;6.57;;;5.97;;
6941;SDS011;3510;43.200;27.920;2022-11-15T01:38:21;6.55;;;6.00;;
6941;SDS011;3510;43.200;27.920;2022-11-15T01:40:48;7.18;;;6.53;;
6941;SDS011;3510;43.200;27.920;2022-11-15T01:43:19;6.93;;;6.33;;
6941;SDS011;3510;43.200;27.920;2022-11-15T01:45:47;7.07;;;6.45;;
6941;SDS011;3510;43.200;27.920;2022-11-15T01:48:20;6.85;;;6.25;;
6941;SDS011;3510;43.200;27.920;2022-11-15T01:50:48;7.00;;;6.30;;
6941;SDS011;3510;43.200;27.920;2022-11-15T01:53:16;7.85;;;7.05;;
6941;SDS011;3510;43.200;27.920;2022-11-15T01:55:45;7.38;;;6.57;;
6941;SDS011;3510;43.200;27.920;2022-11-15T01:58:12;6.60;;;6.00;;
6941;SDS011;3510;43.200;27.920;2022-11-15T02:00:39;9.35;;;6.30;;
6941;SDS011;3510;43.200;27.920;2022-11-15T02:03:06;7.40;;;6.45;;
6941;SDS011;3510;43.200;27.920;2022-11-15T02:05:35;7.10;;;6.43;;
6941;SDS011;3510;43.200;27.920;2022-11-15T02:08:03;7.05;;;6.28;;
6941;SDS011;3510;43.200;27.920;2022-11-15T02:10:31;7.30;;;6.60;;
6941;SDS011;3510;43.200;27.920;2022-11-15T02:12:58;6.65;;;6.05;;
6941;SDS011;3510;43.200;27.920;2022-11-15T02:15:31;5.63;;;5.22;;
6941;SDS011;3510;43.200;27.920;2022-11-15T02:18:10;7.63;;;6.13;;
6941;SDS011;3510;43.200;27.920;2022-11-15T02:20:48;6.50;;;5.90;;
6941;SDS011;3510;43.200;27.920;2022-11-15T02:23:27;6.88;;;6.28;;
6941;SDS011;3510;43.200;27.920;2022-11-15T02:26:17;6.60;;;6.00;;
6941;SDS011;3510;43.200;27.920;2022-11-15T02:29:05;6.68;;;6.10;;
6941;SDS011;3510;43.200;27.920;2022-11-15T02:31:39;6.25;;;5.70;;
6941;SDS011;3510;43.200;27.920;2022-11-15T02:34:16;6.73;;;6.13;;
6941;SDS011;3510;43.200;27.920;2022-11-15T02:36:54;6.07;;;5.57;;
6941;SDS011;3510;43.200;27.920;2022-11-15T02:39:31;6.50;;;6.00;;
6941;SDS011;3510;43.200;27.920;2022-11-15T02:42:04;6.43;;;5.93;;
6941;SDS011;3510;43.200;27.920;2022-11-15T02:44:55;8.30;;;7.60;;
6941;SDS011;3510;43.200;27.920;2022-11-15T02:47:27;10.47;;;9.43;;
6941;SDS011;3510;43.200;27.920;2022-11-15T02:49:57;9.97;;;8.73;;
6941;SDS011;3510;43.200;27.920;2022-11-15T02:52:28;8.63;;;7.75;;
6941;SDS011;3510;43.200;27.920;2022-11-15T02:54:55;7.60;;;6.85;;
6941;SDS011;3510;43.200;27.920;2022-11-15T02:57:25;10.90;;;9.90;;
6941;SDS011;3510;43.200;27.920;2022-11-15T03:00:04;13.30;;;11.95;;
6941;SDS011;3510;43.200;27.920;2022-11-15T03:02:46;11.10;;;10.07;;
6941;SDS011;3510;43.200;27.920;2022-11-15T03:05:37;9.32;;;8.35;;
6941;SDS011;3510;43.200;27.920;2022-11-15T03:08:12;7.50;;;6.80;;
6941;SDS011;3510;43.200;27.920;2022-11-15T03:10:45;6.85;;;6.25;;
6941;SDS011;3510;43.200;27.920;2022-11-15T03:13:26;6.90;;;6.30;;
6941;SDS011;3510;43.200;27.920;2022-11-15T03:15:59;6.25;;;5.75;;
6941;SDS011;3510;43.200;27.920;2022-11-15T03:18:33;5.43;;;5.03;;
6941;SDS011;3510;43.200;27.920;2022-11-15T03:21:04;4.68;;;4.28;;
6941;SDS011;3510;43.200;27.920;2022-11-15T03:23:34;5.00;;;4.70;;
6941;SDS011;3510;43.200;27.920;2022-11-15T03:26:03;5.45;;;5.05;;
6941;SDS011;3510;43.200;27.920;2022-11-15T03:28:36;5.07;;;4.68;;
6941;SDS011;3510;43.200;27.920;2022-11-15T03:31:06;6.28;;;5.35;;
6941;SDS011;3510;43.200;27.920;2022-11-15T03:33:51;5.03;;;4.63;;
6941;SDS011;3510;43.200;27.920;2022-11-15T03:36:21;4.90;;;4.50;;
6941;SDS011;3510;43.200;27.920;2022-11-15T03:38:50;5.20;;;4.80;;
6941;SDS011;3510;43.200;27.920;2022-11-15T03:41:22;5.03;;;4.63;;
6941;SDS011;3510;43.200;27.920;2022-11-15T03:43:55;5.20;;;4.80;;
6941;SDS011;3510;43.200;27.920;2022-11-15T03:46:31;5.53;;;5.13;;
6941;SDS011;3510;43.200;27.920;2022-11-15T03:49:03;5.55;;;5.05;;
6941;SDS011;3510;43.200;27.920;2022-11-15T03:51:33;6.03;;;5.53;;
6941;SDS011;3510;43.200;27.920;2022-11-15T03:54:02;5.13;;;4.73;;
6941;SDS011;3510;43.200;27.920;2022-11-15T03:56:30;5.53;;;5.13;;
6941;SDS011;3510;43.200;27.920;2022-11-15T03:58:57;5.90;;;5.40;;
6941;SDS011;3510;43.200;27.920;2022-11-15T04:01:24;5.38;;;4.95;;
6941;SDS011;3510;43.200;27.920;2022-11-15T04:03:51;7.20;;;6.25;;
6941;SDS011;3510;43.200;27.920;2022-11-15T04:06:20;5.43;;;5.03;;
6941;SDS011;3510;43.200;27.920;2022-11-15T04:08:47;6.22;;;5.68;;
6941;SDS011;3510;43.200;27.920;2022-11-15T04:11:14;6.28;;;5.78;;
6941;SDS011;3510;43.200;27.920;2022-11-15T04:13:41;6.32;;;5.80;;
6941;SDS011;3510;43.200;27.920;2022-11-15T04:16:08;5.82;;;5.43;;
6941;SDS011;3510;43.200;27.920;2022-11-15T04:18:35;5.53;;;5.13;;
6941;SDS011;3510;43.200;27.920;2022-11-15T04:21:02;6.13;;;5.70;;
6941;SDS011;3510;43.200;27.920;2022-11-15T04:23:47;6.63;;;5.97;;
6941;SDS011;3510;43.200;27.920;2022-11-15T04:26:31;6.80;;;6.10;;
6941;SDS011;3510;43.200;27.920;2022-11-15T04:28:59;7.13;;;6.18;;
6941;SDS011;3510;43.200;27.920;2022-11-15T04:31:43;6.15;;;5.65;;
6941;SDS011;3510;43.200;27.920;2022-11-15T04:34:10;7.10;;;5.50;;
6941;SDS011;3510;43.200;27.920;2022-11-15T04:36:37;6.38;;;5.78;;
6941;SDS011;3510;43.200;27.920;2022-11-15T04:39:22;6.22;;;5.72;;
6941;SDS011;3510;43.200;27.920;2022-11-15T04:41:49;7.35;;;6.28;;
6941;SDS011;3510;43.200;27.920;2022-11-15T04:44:16;6.78;;;5.93;;
6941;SDS011;3510;43.200;27.920;2022-11-15T04:46:43;7.90;;;7.10;;
6941;SDS011;3510;43.200;27.920;2022-11-15T04:49:10;8.50;;;7.72;;
6941;SDS011;3510;43.200;27.920;2022-11-15T04:51:37;8.38;;;6.53;;
6941;SDS011;3510;43.200;27.920;2022-11-15T04:54:04;7.60;;;6.90;;
6941;SDS011;3510;43.200;27.920;2022-11-15T04:56:33;7.20;;;6.60;;
6941;SDS011;3510;43.200;27.920;2022-11-15T04:59:00;7.43;;;6.82;;
6941;SDS011;3510;43.200;27.920;2022-11-15T05:01:27;7.78;;;6.53;;
6941;SDS011;3510;43.200;27.920;2022-11-15T05:03:54;12.65;;;10.48;;
6941;SDS011;3510;43.200;27.920;2022-11-15T05:06:38;8.90;;;7.88;;
6941;SDS011;3510;43.200;27.920;2022-11-15T05:09:05;7.90;;;7.03;;
6941;SDS011;3510;43.200;27.920;2022-11-15T05:11:34;7.75;;;7.03;;
6941;SDS011;3510;43.200;27.920;2022-11-15T05:14:01;7.38;;;6.78;;
6941;SDS011;3510;43.200;27.920;2022-11-15T05:16:28;7.07;;;6.35;;
6941;SDS011;3510;43.200;27.920;2022-11-15T05:18:55;7.78;;;6.60;;
6941;SDS011;3510;43.200;27.920;2022-11-15T05:21:22;6.87;;;6.23;;
6941;SDS011;3510;43.200;27.920;2022-11-15T05:23:49;7.05;;;6.35;;
6941;SDS011;3510;43.200;27.920;2022-11-15T05:26:17;6.15;;;5.57;;
6941;SDS011;3510;43.200;27.920;2022-11-15T05:28:46;8.30;;;6.68;;
6941;SDS011;3510;43.200;27.920;2022-11-15T05:31:13;7.47;;;6.78;;
6941;SDS011;3510;43.200;27.920;2022-11-15T05:33:42;8.90;;;6.90;;
6941;SDS011;3510;43.200;27.920;2022-11-15T05:36:12;8.05;;;6.93;;
6941;SDS011;3510;43.200;27.920;2022-11-15T05:38:43;8.63;;;6.82;;
6941;SDS011;3510;43.200;27.920;2022-11-15T05:41:11;8.55;;;6.88;;
6941;SDS011;3510;43.200;27.920;2022-11-15T05:43:39;7.55;;;6.90;;
6941;SDS011;3510;43.200;27.920;2022-11-15T05:46:09;7.55;;;6.85;;
6941;SDS011;3510;43.200;27.920;2022-11-15T05:48:36;8.07;;;7.10;;
6941;SDS011;3510;43.200;27.920;2022-11-15T05:51:06;7.47;;;6.78;;
6941;SDS011;3510;43.200;27.920;2022-11-15T05:53:34;7.75;;;6.90;;
6941;SDS011;3510;43.200;27.920;2022-11-15T05:56:02;8.35;;;6.65;;
6941;SDS011;3510;43.200;27.920;2022-11-15T05:58:30;12.40;;;8.10;;
6941;SDS011;3510;43.200;27.920;2022-11-15T06:00:58;8.68;;;7.65;;
6941;SDS011;3510;43.200;27.920;2022-11-15T06:03:27;9.10;;;8.20;;
6941;SDS011;3510;43.200;27.920;2022-11-15T06:05:54;9.30;;;7.95;;
6941;SDS011;3510;43.200;27.920;2022-11-15T06:08:22;8.98;;;7.47;;
6941;SDS011;3510;43.200;27.920;2022-11-15T06:10:49;8.20;;;7.40;;
6941;SDS011;3510;43.200;27.920;2022-11-15T06:13:16;14.25;;;8.98;;
6941;SDS011;3510;43.200;27.920;2022-11-15T06:15:44;9.98;;;7.30;;
6941;SDS011;3510;43.200;27.920;2022-11-15T06:18:14;11.32;;;7.47;;
6941;SDS011;3510;43.200;27.920;2022-11-15T06:20:43;9.20;;;7.47;;
6941;SDS011;3510;43.200;27.920;2022-11-15T06:23:10;7.53;;;6.68;;
6941;SDS011;3510;43.200;27.920;2022-11-15T06:25:37;9.10;;;7.50;;
6941;SDS011;3510;43.200;27.920;2022-11-15T06:28:04;9.35;;;7.47;;
6941;SDS011;3510;43.200;27.920;2022-11-15T06:30:31;9.00;;;7.75;;
6941;SDS011;3510;43.200;27.920;2022-11-15T06:32:58;8.02;;;7.22;;
6941;SDS011;3510;43.200;27.920;2022-11-15T06:35:26;8.23;;;7.40;;
6941;SDS011;3510;43.200;27.920;2022-11-15T06:37:55;9.18;;;7.90;;
6941;SDS011;3510;43.200;27.920;2022-11-15T06:40:27;10.98;;;8.40;;
6941;SDS011;3510;43.200;27.920;2022-11-15T06:42:57;10.50;;;7.28;;
6941;SDS011;3510;43.200;27.920;2022-11-15T06:45:24;11.15;;;8.57;;
6941;SDS011;3510;43.200;27.920;2022-11-15T06:47:51;9.35;;;7.15;;
6941;SDS011;3510;43.200;27.920;2022-11-15T06:50:18;12.80;;;10.27;;
6941;SDS011;3510;43.200;27.920;2022-11-15T06:52:46;11.45;;;7.63;;
6941;SDS011;3510;43.200;27.920;2022-11-15T06:55:15;11.30;;;7.75;;
6941;SDS011;3510;43.200;27.920;2022-11-15T06:57:48;12.00;;;8.07;;
6941;SDS011;3510;43.200;27.920;2022-11-15T07:00:16;8.05;;;7.25;;
6941;SDS011;3510;43.200;27.920;2022-11-15T07:02:44;7.68;;;6.97;;
6941;SDS011;3510;43.200;27.920;2022-11-15T07:05:12;7.30;;;6.50;;
6941;SDS011;3510;43.200;27.920;2022-11-15T07:07:40;7.55;;;6.68;;
6941;SDS011;3510;43.200;27.920;2022-11-15T07:10:07;19.45;;;10.60;;
6941;SDS011;3510;43.200;27.920;2022-11-15T07:12:36;9.07;;;7.95;;
6941;SDS011;3510;43.200;27.920;2022-11-15T07:15:04;9.20;;;7.90;;
6941;SDS011;3510;43.200;27.920;2022-11-15T07:17:35;9.85;;;7.40;;
6941;SDS011;3510;43.200;27.920;2022-11-15T07:20:02;9.02;;;7.38;;
6941;SDS011;3510;43.200;27.920;2022-11-15T07:22:30;9.98;;;8.40;;
6941;SDS011;3510;43.200;27.920;2022-11-15T07:24:57;12.98;;;7.50;;
6941;SDS011;3510;43.200;27.920;2022-11-15T07:27:24;8.75;;;7.30;;
6941;SDS011;3510;43.200;27.920;2022-11-15T07:29:52;7.68;;;6.60;;
6941;SDS011;3510;43.200;27.920;2022-11-15T07:32:22;8.15;;;7.05;;
6941;SDS011;3510;43.200;27.920;2022-11-15T07:34:49;8.07;;;7.03;;
6941;SDS011;3510;43.200;27.920;2022-11-15T07:37:16;10.25;;;7.70;;
6941;SDS011;3510;43.200;27.920;2022-11-15T07:39:44;7.93;;;6.68;;
6941;SDS011;3510;43.200;27.920;2022-11-15T07:42:11;9.30;;;7.83;;
6941;SDS011;3510;43.200;27.920;2022-11-15T07:44:57;8.50;;;7.60;;
6941;SDS011;3510;43.200;27.920;2022-11-15T07:47:24;7.60;;;6.85;;
6941;SDS011;3510;43.200;27.920;2022-11-15T07:49:54;7.40;;;6.70;;
6941;SDS011;3510;43.200;27.920;2022-11-15T07:52:22;8.48;;;6.72;;
6941;SDS011;3510;43.200;27.920;2022-11-15T07:54:48;7.07;;;6.32;;
6941;SDS011;3510;43.200;27.920;2022-11-15T07:57:15;6.97;;;6.28;;
6941;SDS011;3510;43.200;27.920;2022-11-15T07:59:42;13.75;;;7.35;;
6941;SDS011;3510;43.200;27.920;2022-11-15T08:05:07;7.43;;;6.50;;
6941;SDS011;3510;43.200;27.920;2022-11-15T08:07:34;7.20;;;6.50;;
6941;SDS011;3510;43.200;27.920;2022-11-15T08:10:03;6.53;;;5.93;;
6941;SDS011;3510;43.200;27.920;2022-11-15T08:12:32;8.18;;;6.20;;
6941;SDS011;3510;43.200;27.920;2022-11-15T08:15:13;10.30;;;7.03;;
6941;SDS011;3510;43.200;27.920;2022-11-15T08:20:38;14.37;;;10.00;;
6941;SDS011;3510;43.200;27.920;2022-11-15T08:23:07;9.20;;;7.35;;
6941;SDS011;3510;43.200;27.920;2022-11-15T08:25:35;8.02;;;7.22;;
6941;SDS011;3510;43.200;27.920;2022-11-15T08:28:04;13.93;;;7.68;;
6941;SDS011;3510;43.200;27.920;2022-11-15T08:30:34;8.88;;;6.35;;
6941;SDS011;3510;43.200;27.920;2022-11-15T08:33:03;7.63;;;6.82;;
6941;SDS011;3510;43.200;27.920;2022-11-15T08:38:55;7.40;;;6.32;;
6941;SDS011;3510;43.200;27.920;2022-11-15T08:41:24;7.13;;;5.63;;
6941;SDS011;3510;43.200;27.920;2022-11-15T08:43:53;7.28;;;5.90;;
6941;SDS011;3510;43.200;27.920;2022-11-15T08:46:20;7.03;;;5.38;;
6941;SDS011;3510;43.200;27.920;2022-11-15T08:48:50;8.02;;;5.63;;
6941;SDS011;3510;43.200;27.920;2022-11-15T08:51:30;8.52;;;6.57;;
6941;SDS011;3510;43.200;27.920;2022-11-15T08:53:59;8.25;;;5.95;;
6941;SDS011;3510;43.200;27.920;2022-11-15T08:56:33;5.57;;;4.97;;
6941;SDS011;3510;43.200;27.920;2022-11-15T08:59:07;7.63;;;5.75;;
6941;SDS011;3510;43.200;27.920;2022-11-15T09:01:34;9.40;;;6.05;;
6941;SDS011;3510;43.200;27.920;2022-11-15T09:04:01;7.85;;;5.85;;
6941;SDS011;3510;43.200;27.920;2022-11-15T09:06:29;6.40;;;5.85;;
6941;SDS011;3510;43.200;27.920;2022-11-15T09:08:56;6.83;;;6.23;;
6941;SDS011;3510;43.200;27.920;2022-11-15T09:14:51;8.80;;;6.15;;
6941;SDS011;3510;43.200;27.920;2022-11-15T09:17:18;7.63;;;6.30;;
6941;SDS011;3510;43.200;27.920;2022-11-15T09:19:45;6.60;;;5.90;;
6941;SDS011;3510;43.200;27.920;2022-11-15T09:22:12;8.68;;;6.53;;
6941;SDS011;3510;43.200;27.920;2022-11-15T09:24:39;7.97;;;5.43;;
6941;SDS011;3510;43.200;27.920;2022-11-15T09:27:20;8.40;;;6.55;;
6941;SDS011;3510;43.200;27.920;2022-11-15T09:29:47;7.15;;;6.45;;
6941;SDS011;3510;43.200;27.920;2022-11-15T09:32:15;6.20;;;5.60;;
6941;SDS011;3510;43.200;27.920;2022-11-15T09:34:42;8.50;;;6.38;;
6941;SDS011;3510;43.200;27.920;2022-11-15T09:37:09;6.15;;;5.13;;
6941;SDS011;3510;43.200;27.920;2022-11-15T09:39:37;7.88;;;5.53;;
6941;SDS011;3510;43.200;27.920;2022-11-15T09:42:12;6.13;;;5.53;;
6941;SDS011;3510;43.200;27.920;2022-11-15T09:44:56;5.15;;;4.75;;
6941;SDS011;3510;43.200;27.920;2022-11-15T09:47:49;5.13;;;4.63;;
6941;SDS011;3510;43.200;27.920;2022-11-15T09:50:41;5.03;;;4.63;;
6941;SDS011;3510;43.200;27.920;2022-11-15T09:53:21;6.55;;;5.32;;
6941;SDS011;3510;43.200;27.920;2022-11-15T09:55:58;5.15;;;4.75;;
6941;SDS011;3510;43.200;27.920;2022-11-15T09:58:29;6.80;;;5.75;;
6941;SDS011;3510;43.200;27.920;2022-11-15T10:01:03;6.13;;;5.47;;
6941;SDS011;3510;43.200;27.920;2022-11-15T10:06:24;6.45;;;5.90;;
6941;SDS011;3510;43.200;27.920;2022-11-15T10:09:09;7.72;;;6.30;;
6941;SDS011;3510;43.200;27.920;2022-11-15T10:11:41;10.95;;;9.15;;
6941;SDS011;3510;43.200;27.920;2022-11-15T10:14:10;8.25;;;7.40;;
6941;SDS011;3510;43.200;27.920;2022-11-15T10:16:53;6.55;;;5.55;;
6941;SDS011;3510;43.200;27.920;2022-11-15T10:19:50;5.55;;;5.15;;
6941;SDS011;3510;43.200;27.920;2022-11-15T10:22:27;9.38;;;5.30;;
6941;SDS011;3510;43.200;27.920;2022-11-15T10:25:10;8.07;;;5.40;;
6941;SDS011;3510;43.200;27.920;2022-11-15T10:27:43;5.80;;;5.30;;
6941;SDS011;3510;43.200;27.920;2022-11-15T10:30:15;6.65;;;5.30;;
6941;SDS011;3510;43.200;27.920;2022-11-15T10:32:43;6.70;;;5.28;;
6941;SDS011;3510;43.200;27.920;2022-11-15T10:35:21;7.50;;;5.80;;
6941;SDS011;3510;43.200;27.920;2022-11-15T10:37:49;6.97;;;5.97;;
6941;SDS011;3510;43.200;27.920;2022-11-15T10:40:18;6.05;;;5.45;;
6941;SDS011;3510;43.200;27.920;2022-11-15T10:42:47;5.95;;;5.35;;
6941;SDS011;3510;43.200;27.920;2022-11-15T10:45:22;5.88;;;5.30;;
6941;SDS011;3510;43.200;27.920;2022-11-15T10:47:52;7.50;;;5.78;;
6941;SDS011;3510;43.200;27.920;2022-11-15T10:50:28;7.95;;;5.65;;
6941;SDS011;3510;43.200;27.920;2022-11-15T10:52:56;5.57;;;5.07;;
6941;SDS011;3510;43.200;27.920;2022-11-15T10:55:26;5.20;;;4.80;;
6941;SDS011;3510;43.200;27.920;2022-11-15T10:57:58;6.95;;;5.68;;
6941;SDS011;3510;43.200;27.920;2022-11-15T11:00:31;8.50;;;5.95;;
6941;SDS011;3510;43.200;27.920;2022-11-15T11:03:01;5.88;;;5.38;;
6941;SDS011;3510;43.200;27.920;2022-11-15T11:05:33;8.02;;;7.32;;
6941;SDS011;3510;43.200;27.920;2022-11-15T11:08:04;10.45;;;8.25;;
6941;SDS011;3510;43.200;27.920;2022-11-15T11:10:46;8.02;;;6.90;;
6941;SDS011;3510;43.200;27.920;2022-11-15T11:13:21;6.68;;;6.18;;
6941;SDS011;3510;43.200;27.920;2022-11-15T11:15:51;9.15;;;6.55;;
6941;SDS011;3510;43.200;27.920;2022-11-15T11:18:23;6.82;;;6.10;;
6941;SDS011;3510;43.200;27.920;2022-11-15T11:20:58;7.40;;;6.03;;
6941;SDS011;3510;43.200;27.920;2022-11-15T11:23:34;6.20;;;5.70;;
6941;SDS011;3510;43.200;27.920;2022-11-15T11:26:13;7.70;;;6.90;;
6941;SDS011;3510;43.200;27.920;2022-11-15T11:28:56;6.40;;;5.78;;
6941;SDS011;3510;43.200;27.920;2022-11-15T11:31:33;6.88;;;5.43;;
6941;SDS011;3510;43.200;27.920;2022-11-15T11:34:11;6.07;;;5.57;;
6941;SDS011;3510;43.200;27.920;2022-11-15T11:36:45;6.55;;;5.95;;
6941;SDS011;3510;43.200;27.920;2022-11-15T11:39:24;5.38;;;4.88;;
6941;SDS011;3510;43.200;27.920;2022-11-15T11:42:03;5.57;;;5.07;;
6941;SDS011;3510;43.200;27.920;2022-11-15T11:44:46;5.40;;;4.50;;
6941;SDS011;3510;43.200;27.920;2022-11-15T11:47:20;5.13;;;4.70;;
6941;SDS011;3510;43.200;27.920;2022-11-15T11:49:50;6.65;;;6.00;;
6941;SDS011;3510;43.200;27.920;2022-11-15T11:52:23;6.90;;;6.03;;
6941;SDS011;3510;43.200;27.920;2022-11-15T11:54:57;6.43;;;5.82;;
6941;SDS011;3510;43.200;27.920;2022-11-15T11:57:31;7.33;;;4.90;;
6941;SDS011;3510;43.200;27.920;2022-11-15T12:00:12;5.47;;;4.97;;
6941;SDS011;3510;43.200;27.920;2022-11-15T12:02:45;5.47;;;4.97;;
6941;SDS011;3510;43.200;27.920;2022-11-15T12:05:18;7.63;;;5.70;;
6941;SDS011;3510;43.200;27.920;2022-11-15T12:07:56;5.75;;;4.63;;
6941;SDS011;3510;43.200;27.920;2022-11-15T12:10:31;7.60;;;4.40;;
6941;SDS011;3510;43.200;27.920;2022-11-15T12:13:02;5.68;;;4.30;;
6941;SDS011;3510;43.200;27.920;2022-11-15T12:28:13;6.05;;;5.55;;
6941;SDS011;3510;43.200;27.920;2022-11-15T12:30:46;6.90;;;4.43;;
6941;SDS011;3510;43.200;27.920;2022-11-15T12:33:34;5.55;;;4.28;;
6941;SDS011;3510;43.200;27.920;2022-11-15T12:36:04;4.82;;;4.43;;
6941;SDS011;3510;43.200;27.920;2022-11-15T12:41:24;6.07;;;5.03;;
6941;SDS011;3510;43.200;27.920;2022-11-15T12:43:52;4.82;;;4.25;;
6941;SDS011;3510;43.200;27.920;2022-11-15T12:46:21;5.13;;;4.40;;
6941;SDS011;3510;43.200;27.920;2022-11-15T12:48:54;4.20;;;3.80;;
6941;SDS011;3510;43.200;27.920;2022-11-15T12:54:57;4.38;;;3.70;;
6941;SDS011;3510;43.200;27.920;2022-11-15T12:57:31;5.50;;;3.85;;
6941;SDS011;3510;43.200;27.920;2022-11-15T13:00:36;4.18;;;3.78;;
6941;SDS011;3510;43.200;27.920;2022-11-15T13:03:24;3.80;;;3.50;;
6941;SDS011;3510;43.200;27.920;2022-11-15T13:06:04;3.50;;;3.20;;
6941;SDS011;3510;43.200;27.920;2022-11-15T13:08:40;4.10;;;3.25;;
6941;SDS011;3510;43.200;27.920;2022-11-15T13:14:41;5.00;;;3.25;;
6941;SDS011;3510;43.200;27.920;2022-11-15T13:17:29;10.38;;;3.60;;
6941;SDS011;3510;43.200;27.920;2022-11-15T13:22:58;3.47;;;3.10;;
6941;SDS011;3510;43.200;27.920;2022-11-15T13:28:33;6.63;;;4.47;;
6941;SDS011;3510;43.200;27.920;2022-11-15T13:31:13;4.57;;;3.73;;
6941;SDS011;3510;43.200;27.920;2022-11-15T13:34:14;4.25;;;3.30;;
6941;SDS011;3510;43.200;27.920;2022-11-15T13:36:51;3.50;;;3.20;;
6941;SDS011;3510;43.200;27.920;2022-11-15T13:39:28;5.53;;;3.80;;
6941;SDS011;3510;43.200;27.920;2022-11-15T13:41:56;6.20;;;3.63;;
6941;SDS011;3510;43.200;27.920;2022-11-15T13:44:25;3.58;;;3.13;;
6941;SDS011;3510;43.200;27.920;2022-11-15T13:47:05;6.15;;;3.55;;
6941;SDS011;3510;43.200;27.920;2022-11-15T13:49:33;3.70;;;3.40;;
6941;SDS011;3510;43.200;27.920;2022-11-15T13:52:07;6.50;;;4.30;;
6941;SDS011;3510;43.200;27.920;2022-11-15T13:54:50;4.15;;;3.75;;
6941;SDS011;3510;43.200;27.920;2022-11-15T13:57:24;3.90;;;3.60;;
6941;SDS011;3510;43.200;27.920;2022-11-15T13:59:56;10.73;;;5.60;;
6941;SDS011;3510;43.200;27.920;2022-11-15T14:02:29;6.30;;;4.07;;
6941;SDS011;3510;43.200;27.920;2022-11-15T14:04:59;6.25;;;3.75;;
6941;SDS011;3510;43.200;27.920;2022-11-15T14:07:29;4.15;;;3.70;;
6941;SDS011;3510;43.200;27.920;2022-11-15T14:09:57;4.63;;;3.65;;
6941;SDS011;3510;43.200;27.920;2022-11-15T14:12:49;3.93;;;3.63;;
6941;SDS011;3510;43.200;27.920;2022-11-15T14:15:19;3.45;;;3.15;;
6941;SDS011;3510;43.200;27.920;2022-11-15T14:17:54;4.82;;;3.30;;
6941;SDS011;3510;43.200;27.920;2022-11-15T14:20:27;5.13;;;3.95;;
6941;SDS011;3510;43.200;27.920;2022-11-15T14:22:58;4.00;;;3.22;;
6941;SDS011;3510;43.200;27.920;2022-11-15T14:25:26;5.97;;;3.83;;
6941;SDS011;3510;43.200;27.920;2022-11-15T14:28:12;5.72;;;3.45;;
6941;SDS011;3510;43.200;27.920;2022-11-15T14:30:42;3.70;;;3.40;;
6941;SDS011;3510;43.200;27.920;2022-11-15T14:33:21;3.63;;;3.33;;
6941;SDS011;3510;43.200;27.920;2022-11-15T14:35:50;4.78;;;3.13;;
6941;SDS011;3510;43.200;27.920;2022-11-15T14:38:20;4.32;;;3.70;;
6941;SDS011;3510;43.200;27.920;2022-11-15T14:40:47;6.10;;;3.67;;
6941;SDS011;3510;43.200;27.920;2022-11-15T14:43:15;3.38;;;3.08;;
6941;SDS011;3510;43.200;27.920;2022-11-15T14:45:43;4.70;;;3.80;;
6941;SDS011;3510;43.200;27.920;2022-11-15T14:48:11;3.85;;;3.58;;
6941;SDS011;3510;43.200;27.920;2022-11-15T14:50:40;3.55;;;3.35;;
6941;SDS011;3510;43.200;27.920;2022-11-15T14:53:10;4.03;;;3.72;;
6941;SDS011;3510;43.200;27.920;2022-11-15T14:55:39;5.72;;;3.88;;
6941;SDS011;3510;43.200;27.920;2022-11-15T14:58:06;3.95;;;3.65;;
6941;SDS011;3510;43.200;27.920;2022-11-15T15:00:35;4.13;;;3.70;;
6941;SDS011;3510;43.200;27.920;2022-11-15T15:03:04;3.92;;;3.63;;
6941;SDS011;3510;43.200;27.920;2022-11-15T15:05:48;5.80;;;3.78;;
6941;SDS011;3510;43.200;27.920;2022-11-15T15:08:15;6.78;;;4.32;;
6941;SDS011;3510;43.200;27.920;2022-11-15T15:10:43;6.80;;;4.38;;
6941;SDS011;3510;43.200;27.920;2022-11-15T15:13:15;9.02;;;5.00;;
6941;SDS011;3510;43.200;27.920;2022-11-15T15:15:44;6.88;;;4.68;;
6941;SDS011;3510;43.200;27.920;2022-11-15T15:18:11;5.07;;;4.43;;
6941;SDS011;3510;43.200;27.920;2022-11-15T15:20:39;6.03;;;4.50;;
6941;SDS011;3510;43.200;27.920;2022-11-15T15:23:11;5.20;;;4.30;;
6941;SDS011;3510;43.200;27.920;2022-11-15T15:25:42;4.47;;;4.10;;
6941;SDS011;3510;43.200;27.920;2022-11-15T15:28:10;8.75;;;6.10;;
6941;SDS011;3510;43.200;27.920;2022-11-15T15:30:37;5.63;;;5.13;;
6941;SDS011;3510;43.200;27.920;2022-11-15T15:33:04;8.63;;;7.72;;
6941;SDS011;3510;43.200;27.920;2022-11-15T15:35:32;8.05;;;6.90;;
6941;SDS011;3510;43.200;27.920;2022-11-15T15:38:00;8.20;;;7.07;;
6941;SDS011;3510;43.200;27.920;2022-11-15T15:40:30;6.72;;;6.03;;
6941;SDS011;3510;43.200;27.920;2022-11-15T15:42:58;8.98;;;5.72;;
6941;SDS011;3510;43.200;27.920;2022-11-15T15:45:25;8.80;;;6.70;;
6941;SDS011;3510;43.200;27.920;2022-11-15T15:47:54;6.82;;;6.22;;
6941;SDS011;3510;43.200;27.920;2022-11-15T15:50:23;5.90;;;5.30;;
6941;SDS011;3510;43.200;27.920;2022-11-15T15:52:51;5.90;;;5.40;;
6941;SDS011;3510;43.200;27.920;2022-11-15T15:55:20;6.00;;;5.50;;
6941;SDS011;3510;43.200;27.920;2022-11-15T15:57:49;10.00;;;6.20;;
6941;SDS011;3510;43.200;27.920;2022-11-15T16:00:17;6.82;;;5.68;;
6941;SDS011;3510;43.200;27.920;2022-11-15T16:02:45;10.52;;;6.25;;
6941;SDS011;3510;43.200;27.920;2022-11-15T16:05:12;8.20;;;5.90;;
6941;SDS011;3510;43.200;27.920;2022-11-15T16:07:39;6.35;;;5.20;;
6941;SDS011;3510;43.200;27.920;2022-11-15T16:10:19;7.63;;;5.90;;